sensor_id;sensor_type;location;lat;lon;timestamp;P1;durP1;ratioP1;P2;durP2;ratioP2
71353;SDS011;59393;51.652;4.864;2022-08-19T00:01:12;29.52;;;13.02;;
71353;SDS011;59393;51.652;4.864;2022-08-19T00:03:38;22.60;;;13.70;;
71353;SDS011;59393;51.652;4.864;2022-08-19T00:06:04;27.42;;;14.80;;
71353;SDS011;59393;51.652;4.864;2022-08-19T00:08:30;30.17;;;14.97;;
71353;SDS011;59393;51.652;4.864;2022-08-19T00:10:57;33.78;;;17.13;;
71353;SDS011;59393;51.652;4.864;2022-08-19T00:13:23;35.20;;;16.15;;
71353;SDS011;59393;51.652;4.864;2022-08-19T00:15:49;30.95;;;16.15;;
71353;SDS011;59393;51.652;4.864;2022-08-19T00:18:15;28.42;;;14.88;;
71353;SDS011;59393;51.652;4.864;2022-08-19T00:20:41;27.67;;;16.20;;
71353;SDS011;59393;51.652;4.864;2022-08-19T00:23:07;29.23;;;15.98;;
71353;SDS011;59393;51.652;4.864;2022-08-19T00:25:33;28.83;;;15.93;;
71353;SDS011;59393;51.652;4.864;2022-08-19T00:27:59;32.70;;;16.67;;
71353;SDS011;59393;51.652;4.864;2022-08-19T00:30:25;27.38;;;15.77;;
71353;SDS011;59393;51.652;4.864;2022-08-19T00:32:52;30.00;;;15.63;;
71353;SDS011;59393;51.652;4.864;2022-08-19T00:35:20;27.60;;;15.30;;
71353;SDS011;59393;51.652;4.864;2022-08-19T00:37:47;30.02;;;16.73;;
71353;SDS011;59393;51.652;4.864;2022-08-19T00:40:13;27.45;;;15.55;;
71353;SDS011;59393;51.652;4.864;2022-08-19T00:42:39;28.00;;;15.90;;
71353;SDS011;59393;51.652;4.864;2022-08-19T00:45:10;27.60;;;15.67;;
71353;SDS011;59393;51.652;4.864;2022-08-19T00:47:37;26.38;;;15.10;;
71353;SDS011;59393;51.652;4.864;2022-08-19T00:50:03;29.38;;;15.70;;
71353;SDS011;59393;51.652;4.864;2022-08-19T00:52:30;29.30;;;14.98;;
71353;SDS011;59393;51.652;4.864;2022-08-19T00:54:57;25.50;;;14.32;;
71353;SDS011;59393;51.652;4.864;2022-08-19T00:57:27;26.80;;;15.23;;
71353;SDS011;59393;51.652;4.864;2022-08-19T00:59:54;26.95;;;15.25;;
71353;SDS011;59393;51.652;4.864;2022-08-19T01:02:21;30.80;;;16.05;;
71353;SDS011;59393;51.652;4.864;2022-08-19T01:04:47;32.15;;;15.48;;
71353;SDS011;59393;51.652;4.864;2022-08-19T01:07:13;29.70;;;15.00;;
71353;SDS011;59393;51.652;4.864;2022-08-19T01:09:39;27.53;;;14.43;;
71353;SDS011;59393;51.652;4.864;2022-08-19T01:12:05;28.08;;;15.18;;
71353;SDS011;59393;51.652;4.864;2022-08-19T01:14:31;29.20;;;14.50;;
71353;SDS011;59393;51.652;4.864;2022-08-19T01:16:58;28.75;;;15.07;;
71353;SDS011;59393;51.652;4.864;2022-08-19T01:19:33;29.25;;;14.43;;
71353;SDS011;59393;51.652;4.864;2022-08-19T01:22:03;24.33;;;13.53;;
71353;SDS011;59393;51.652;4.864;2022-08-19T01:24:29;28.90;;;14.38;;
71353;SDS011;59393;51.652;4.864;2022-08-19T01:26:55;25.38;;;14.30;;
71353;SDS011;59393;51.652;4.864;2022-08-19T01:29:21;30.98;;;14.70;;
71353;SDS011;59393;51.652;4.864;2022-08-19T01:31:47;33.20;;;15.77;;
71353;SDS011;59393;51.652;4.864;2022-08-19T01:34:17;27.73;;;14.33;;
71353;SDS011;59393;51.652;4.864;2022-08-19T01:36:43;28.80;;;15.18;;
71353;SDS011;59393;51.652;4.864;2022-08-19T01:39:15;29.27;;;14.45;;
71353;SDS011;59393;51.652;4.864;2022-08-19T01:41:42;33.55;;;14.55;;
71353;SDS011;59393;51.652;4.864;2022-08-19T01:44:08;31.48;;;14.70;;
71353;SDS011;59393;51.652;4.864;2022-08-19T01:46:34;30.20;;;15.73;;
71353;SDS011;59393;51.652;4.864;2022-08-19T01:49:02;25.67;;;13.85;;
71353;SDS011;59393;51.652;4.864;2022-08-19T01:51:28;29.00;;;14.77;;
71353;SDS011;59393;51.652;4.864;2022-08-19T01:53:55;27.70;;;14.70;;
71353;SDS011;59393;51.652;4.864;2022-08-19T01:56:22;33.00;;;14.68;;
71353;SDS011;59393;51.652;4.864;2022-08-19T01:58:49;27.73;;;14.37;;
71353;SDS011;59393;51.652;4.864;2022-08-19T02:01:17;37.90;;;17.30;;
71353;SDS011;59393;51.652;4.864;2022-08-19T02:03:43;45.13;;;18.08;;
71353;SDS011;59393;51.652;4.864;2022-08-19T02:06:09;36.85;;;16.58;;
71353;SDS011;59393;51.652;4.864;2022-08-19T02:08:36;36.90;;;17.67;;
71353;SDS011;59393;51.652;4.864;2022-08-19T02:11:02;35.37;;;16.40;;
71353;SDS011;59393;51.652;4.864;2022-08-19T02:13:28;39.85;;;18.65;;
71353;SDS011;59393;51.652;4.864;2022-08-19T02:15:55;49.38;;;20.42;;
71353;SDS011;59393;51.652;4.864;2022-08-19T02:18:21;46.10;;;20.73;;
71353;SDS011;59393;51.652;4.864;2022-08-19T02:20:47;52.75;;;21.35;;
71353;SDS011;59393;51.652;4.864;2022-08-19T02:23:13;38.60;;;18.87;;
71353;SDS011;59393;51.652;4.864;2022-08-19T02:25:39;41.30;;;19.23;;
71353;SDS011;59393;51.652;4.864;2022-08-19T02:28:05;39.97;;;18.88;;
71353;SDS011;59393;51.652;4.864;2022-08-19T02:30:32;46.38;;;20.13;;
71353;SDS011;59393;51.652;4.864;2022-08-19T02:32:58;43.90;;;20.10;;
71353;SDS011;59393;51.652;4.864;2022-08-19T02:35:24;47.47;;;20.93;;
71353;SDS011;59393;51.652;4.864;2022-08-19T02:37:50;48.45;;;22.15;;
71353;SDS011;59393;51.652;4.864;2022-08-19T02:40:35;51.45;;;22.02;;
71353;SDS011;59393;51.652;4.864;2022-08-19T02:43:02;67.28;;;24.52;;
71353;SDS011;59393;51.652;4.864;2022-08-19T02:45:33;86.75;;;27.50;;
71353;SDS011;59393;51.652;4.864;2022-08-19T02:48:00;99.43;;;28.33;;
71353;SDS011;59393;51.652;4.864;2022-08-19T02:50:27;83.75;;;27.20;;
71353;SDS011;59393;51.652;4.864;2022-08-19T02:52:54;84.28;;;26.92;;
71353;SDS011;59393;51.652;4.864;2022-08-19T02:55:20;70.03;;;26.17;;
71353;SDS011;59393;51.652;4.864;2022-08-19T02:57:46;76.68;;;26.08;;
71353;SDS011;59393;51.652;4.864;2022-08-19T03:00:12;69.80;;;24.03;;
71353;SDS011;59393;51.652;4.864;2022-08-19T03:02:39;71.82;;;24.63;;
71353;SDS011;59393;51.652;4.864;2022-08-19T03:05:06;65.95;;;23.52;;
71353;SDS011;59393;51.652;4.864;2022-08-19T03:07:32;67.97;;;23.80;;
71353;SDS011;59393;51.652;4.864;2022-08-19T03:09:58;77.35;;;24.77;;
71353;SDS011;59393;51.652;4.864;2022-08-19T03:12:24;65.30;;;24.43;;
71353;SDS011;59393;51.652;4.864;2022-08-19T03:14:50;61.72;;;23.67;;
71353;SDS011;59393;51.652;4.864;2022-08-19T03:17:17;59.67;;;22.85;;
71353;SDS011;59393;51.652;4.864;2022-08-19T03:19:43;56.08;;;20.08;;
71353;SDS011;59393;51.652;4.864;2022-08-19T03:22:09;69.97;;;23.60;;
71353;SDS011;59393;51.652;4.864;2022-08-19T03:24:35;86.10;;;24.37;;
71353;SDS011;59393;51.652;4.864;2022-08-19T03:27:02;87.00;;;24.02;;
71353;SDS011;59393;51.652;4.864;2022-08-19T03:29:29;81.80;;;26.08;;
71353;SDS011;59393;51.652;4.864;2022-08-19T03:31:57;82.88;;;24.73;;
71353;SDS011;59393;51.652;4.864;2022-08-19T03:34:24;97.18;;;26.42;;
71353;SDS011;59393;51.652;4.864;2022-08-19T03:36:54;83.93;;;26.00;;
71353;SDS011;59393;51.652;4.864;2022-08-19T03:39:21;90.65;;;26.70;;
71353;SDS011;59393;51.652;4.864;2022-08-19T03:41:48;79.13;;;25.73;;
71353;SDS011;59393;51.652;4.864;2022-08-19T03:44:19;84.85;;;25.48;;
71353;SDS011;59393;51.652;4.864;2022-08-19T03:46:49;93.95;;;27.73;;
71353;SDS011;59393;51.652;4.864;2022-08-19T03:49:16;88.50;;;24.67;;
71353;SDS011;59393;51.652;4.864;2022-08-19T03:51:42;92.05;;;25.83;;
71353;SDS011;59393;51.652;4.864;2022-08-19T03:54:09;81.35;;;26.75;;
71353;SDS011;59393;51.652;4.864;2022-08-19T03:56:36;75.30;;;25.00;;
71353;SDS011;59393;51.652;4.864;2022-08-19T03:59:03;87.90;;;27.67;;
71353;SDS011;59393;51.652;4.864;2022-08-19T04:01:30;69.97;;;25.37;;
71353;SDS011;59393;51.652;4.864;2022-08-19T04:03:56;68.60;;;23.35;;
71353;SDS011;59393;51.652;4.864;2022-08-19T04:06:24;78.82;;;24.15;;
71353;SDS011;59393;51.652;4.864;2022-08-19T04:08:51;82.07;;;25.92;;
71353;SDS011;59393;51.652;4.864;2022-08-19T04:11:20;75.00;;;25.02;;
71353;SDS011;59393;51.652;4.864;2022-08-19T04:13:46;76.47;;;24.50;;
71353;SDS011;59393;51.652;4.864;2022-08-19T04:16:12;71.75;;;23.88;;
71353;SDS011;59393;51.652;4.864;2022-08-19T04:18:39;83.00;;;27.08;;
71353;SDS011;59393;51.652;4.864;2022-08-19T04:21:05;80.90;;;26.65;;
71353;SDS011;59393;51.652;4.864;2022-08-19T04:23:31;77.80;;;24.92;;
71353;SDS011;59393;51.652;4.864;2022-08-19T04:25:58;76.30;;;25.77;;
71353;SDS011;59393;51.652;4.864;2022-08-19T04:28:24;71.82;;;25.77;;
71353;SDS011;59393;51.652;4.864;2022-08-19T04:30:52;74.13;;;25.40;;
71353;SDS011;59393;51.652;4.864;2022-08-19T04:33:20;69.65;;;24.92;;
71353;SDS011;59393;51.652;4.864;2022-08-19T04:35:47;58.65;;;24.27;;
71353;SDS011;59393;51.652;4.864;2022-08-19T04:38:14;66.60;;;24.87;;
71353;SDS011;59393;51.652;4.864;2022-08-19T04:40:41;74.53;;;25.20;;
71353;SDS011;59393;51.652;4.864;2022-08-19T04:43:25;69.63;;;25.65;;
71353;SDS011;59393;51.652;4.864;2022-08-19T04:45:52;56.15;;;24.15;;
71353;SDS011;59393;51.652;4.864;2022-08-19T04:48:18;59.55;;;24.23;;
71353;SDS011;59393;51.652;4.864;2022-08-19T04:50:50;63.13;;;24.03;;
71353;SDS011;59393;51.652;4.864;2022-08-19T04:53:19;59.25;;;24.17;;
71353;SDS011;59393;51.652;4.864;2022-08-19T04:55:45;61.90;;;23.33;;
71353;SDS011;59393;51.652;4.864;2022-08-19T04:58:11;65.82;;;23.70;;
71353;SDS011;59393;51.652;4.864;2022-08-19T05:00:38;83.00;;;28.35;;
71353;SDS011;59393;51.652;4.864;2022-08-19T05:03:04;66.03;;;25.10;;
71353;SDS011;59393;51.652;4.864;2022-08-19T05:05:30;63.00;;;24.25;;
71353;SDS011;59393;51.652;4.864;2022-08-19T05:07:57;54.97;;;23.55;;
71353;SDS011;59393;51.652;4.864;2022-08-19T05:10:23;64.80;;;24.50;;
71353;SDS011;59393;51.652;4.864;2022-08-19T05:12:49;56.07;;;23.77;;
71353;SDS011;59393;51.652;4.864;2022-08-19T05:15:15;55.92;;;22.38;;
71353;SDS011;59393;51.652;4.864;2022-08-19T05:17:41;57.53;;;22.77;;
71353;SDS011;59393;51.652;4.864;2022-08-19T05:20:27;64.72;;;23.92;;
71353;SDS011;59393;51.652;4.864;2022-08-19T05:23:12;72.70;;;25.10;;
71353;SDS011;59393;51.652;4.864;2022-08-19T05:25:40;72.87;;;24.77;;
71353;SDS011;59393;51.652;4.864;2022-08-19T05:28:06;66.32;;;24.65;;
71353;SDS011;59393;51.652;4.864;2022-08-19T05:30:32;56.10;;;23.88;;
71353;SDS011;59393;51.652;4.864;2022-08-19T05:32:59;57.88;;;23.13;;
71353;SDS011;59393;51.652;4.864;2022-08-19T05:35:27;55.63;;;23.98;;
71353;SDS011;59393;51.652;4.864;2022-08-19T05:37:53;60.93;;;23.77;;
71353;SDS011;59393;51.652;4.864;2022-08-19T05:40:19;45.88;;;19.88;;
71353;SDS011;59393;51.652;4.864;2022-08-19T05:42:45;47.53;;;20.05;;
71353;SDS011;59393;51.652;4.864;2022-08-19T05:45:11;50.72;;;20.70;;
71353;SDS011;59393;51.652;4.864;2022-08-19T05:47:37;44.85;;;19.23;;
71353;SDS011;59393;51.652;4.864;2022-08-19T05:50:03;44.90;;;21.50;;
71353;SDS011;59393;51.652;4.864;2022-08-19T05:52:30;44.63;;;21.00;;
71353;SDS011;59393;51.652;4.864;2022-08-19T05:54:55;43.03;;;19.83;;
71353;SDS011;59393;51.652;4.864;2022-08-19T05:57:22;46.40;;;20.63;;
71353;SDS011;59393;51.652;4.864;2022-08-19T05:59:49;42.30;;;21.48;;
71353;SDS011;59393;51.652;4.864;2022-08-19T06:02:16;41.57;;;18.33;;
71353;SDS011;59393;51.652;4.864;2022-08-19T06:04:42;37.72;;;18.73;;
71353;SDS011;59393;51.652;4.864;2022-08-19T06:07:08;36.47;;;19.00;;
71353;SDS011;59393;51.652;4.864;2022-08-19T06:09:34;40.67;;;17.35;;
71353;SDS011;59393;51.652;4.864;2022-08-19T06:12:00;45.00;;;18.60;;
71353;SDS011;59393;51.652;4.864;2022-08-19T06:14:31;35.50;;;17.57;;
71353;SDS011;59393;51.652;4.864;2022-08-19T06:16:58;34.15;;;16.77;;
71353;SDS011;59393;51.652;4.864;2022-08-19T06:19:26;43.90;;;16.83;;
71353;SDS011;59393;51.652;4.864;2022-08-19T06:21:55;41.22;;;17.83;;
71353;SDS011;59393;51.652;4.864;2022-08-19T06:24:22;37.33;;;17.30;;
71353;SDS011;59393;51.652;4.864;2022-08-19T06:26:48;30.50;;;16.50;;
71353;SDS011;59393;51.652;4.864;2022-08-19T06:29:16;35.30;;;16.45;;
71353;SDS011;59393;51.652;4.864;2022-08-19T06:31:44;35.13;;;16.05;;
71353;SDS011;59393;51.652;4.864;2022-08-19T06:34:10;32.50;;;16.20;;
71353;SDS011;59393;51.652;4.864;2022-08-19T06:36:41;33.22;;;17.23;;
71353;SDS011;59393;51.652;4.864;2022-08-19T06:39:12;32.63;;;15.67;;
71353;SDS011;59393;51.652;4.864;2022-08-19T06:41:41;30.05;;;15.63;;
71353;SDS011;59393;51.652;4.864;2022-08-19T06:44:07;36.28;;;16.15;;
71353;SDS011;59393;51.652;4.864;2022-08-19T06:46:34;29.05;;;15.32;;
71353;SDS011;59393;51.652;4.864;2022-08-19T06:49:00;31.77;;;16.27;;
71353;SDS011;59393;51.652;4.864;2022-08-19T06:51:27;39.77;;;16.30;;
71353;SDS011;59393;51.652;4.864;2022-08-19T06:53:54;34.45;;;15.25;;
71353;SDS011;59393;51.652;4.864;2022-08-19T06:56:22;31.30;;;15.52;;
71353;SDS011;59393;51.652;4.864;2022-08-19T06:58:50;39.70;;;16.92;;
71353;SDS011;59393;51.652;4.864;2022-08-19T07:01:17;36.20;;;16.85;;
71353;SDS011;59393;51.652;4.864;2022-08-19T07:03:43;32.43;;;16.23;;
71353;SDS011;59393;51.652;4.864;2022-08-19T07:06:13;37.20;;;15.32;;
71353;SDS011;59393;51.652;4.864;2022-08-19T07:08:40;39.80;;;16.92;;
71353;SDS011;59393;51.652;4.864;2022-08-19T07:11:08;38.05;;;17.40;;
71353;SDS011;59393;51.652;4.864;2022-08-19T07:13:34;35.85;;;16.13;;
71353;SDS011;59393;51.652;4.864;2022-08-19T07:16:08;38.87;;;17.50;;
71353;SDS011;59393;51.652;4.864;2022-08-19T07:18:35;30.85;;;15.95;;
71353;SDS011;59393;51.652;4.864;2022-08-19T07:21:08;34.65;;;18.13;;
71353;SDS011;59393;51.652;4.864;2022-08-19T07:23:35;38.90;;;17.02;;
71353;SDS011;59393;51.652;4.864;2022-08-19T07:26:20;37.63;;;16.40;;
71353;SDS011;59393;51.652;4.864;2022-08-19T07:28:47;37.40;;;14.70;;
71353;SDS011;59393;51.652;4.864;2022-08-19T07:31:15;37.60;;;15.02;;
71353;SDS011;59393;51.652;4.864;2022-08-19T07:33:43;35.50;;;15.52;;
71353;SDS011;59393;51.652;4.864;2022-08-19T07:36:09;33.00;;;16.33;;
71353;SDS011;59393;51.652;4.864;2022-08-19T07:38:42;33.58;;;15.90;;
71353;SDS011;59393;51.652;4.864;2022-08-19T07:41:09;35.83;;;16.93;;
71353;SDS011;59393;51.652;4.864;2022-08-19T07:43:36;34.60;;;16.42;;
71353;SDS011;59393;51.652;4.864;2022-08-19T07:46:02;31.42;;;16.05;;
71353;SDS011;59393;51.652;4.864;2022-08-19T07:48:28;30.23;;;16.02;;
71353;SDS011;59393;51.652;4.864;2022-08-19T07:50:55;29.20;;;15.80;;
71353;SDS011;59393;51.652;4.864;2022-08-19T07:53:22;34.40;;;16.50;;
71353;SDS011;59393;51.652;4.864;2022-08-19T07:55:48;31.65;;;16.23;;
71353;SDS011;59393;51.652;4.864;2022-08-19T07:58:15;32.60;;;15.70;;
71353;SDS011;59393;51.652;4.864;2022-08-19T08:00:42;32.55;;;14.82;;
71353;SDS011;59393;51.652;4.864;2022-08-19T08:03:12;33.88;;;16.30;;
71353;SDS011;59393;51.652;4.864;2022-08-19T08:05:38;26.73;;;14.97;;
71353;SDS011;59393;51.652;4.864;2022-08-19T08:08:23;33.67;;;14.95;;
71353;SDS011;59393;51.652;4.864;2022-08-19T08:11:02;29.45;;;14.77;;
71353;SDS011;59393;51.652;4.864;2022-08-19T08:13:28;29.42;;;14.35;;
71353;SDS011;59393;51.652;4.864;2022-08-19T08:15:55;31.80;;;16.13;;
71353;SDS011;59393;51.652;4.864;2022-08-19T08:18:21;32.40;;;13.77;;
71353;SDS011;59393;51.652;4.864;2022-08-19T08:20:48;31.35;;;16.15;;
71353;SDS011;59393;51.652;4.864;2022-08-19T08:23:14;27.92;;;14.43;;
71353;SDS011;59393;51.652;4.864;2022-08-19T08:25:55;28.33;;;13.80;;
71353;SDS011;59393;51.652;4.864;2022-08-19T08:28:21;26.50;;;14.80;;
71353;SDS011;59393;51.652;4.864;2022-08-19T08:30:48;29.13;;;14.47;;
71353;SDS011;59393;51.652;4.864;2022-08-19T08:33:19;29.08;;;13.40;;
71353;SDS011;59393;51.652;4.864;2022-08-19T08:35:46;24.90;;;13.63;;
71353;SDS011;59393;51.652;4.864;2022-08-19T08:38:12;27.45;;;12.82;;
71353;SDS011;59393;51.652;4.864;2022-08-19T08:43:10;26.13;;;12.83;;
71353;SDS011;59393;51.652;4.864;2022-08-19T08:45:44;20.88;;;12.95;;
71353;SDS011;59393;51.652;4.864;2022-08-19T08:48:18;21.42;;;11.40;;
71353;SDS011;59393;51.652;4.864;2022-08-19T08:50:49;24.33;;;11.55;;
71353;SDS011;59393;51.652;4.864;2022-08-19T08:53:18;19.55;;;9.65;;
71353;SDS011;59393;51.652;4.864;2022-08-19T08:55:45;18.70;;;10.23;;
71353;SDS011;59393;51.652;4.864;2022-08-19T08:58:29;18.42;;;9.65;;
71353;SDS011;59393;51.652;4.864;2022-08-19T09:00:57;18.70;;;9.38;;
71353;SDS011;59393;51.652;4.864;2022-08-19T09:03:27;21.40;;;8.98;;
71353;SDS011;59393;51.652;4.864;2022-08-19T09:06:01;21.83;;;10.15;;
71353;SDS011;59393;51.652;4.864;2022-08-19T09:10:55;22.25;;;8.73;;
71353;SDS011;59393;51.652;4.864;2022-08-19T09:13:30;18.10;;;9.10;;
71353;SDS011;59393;51.652;4.864;2022-08-19T09:16:21;17.73;;;9.13;;
71353;SDS011;59393;51.652;4.864;2022-08-19T09:18:50;15.43;;;7.85;;
71353;SDS011;59393;51.652;4.864;2022-08-19T09:21:24;17.03;;;8.03;;
71353;SDS011;59393;51.652;4.864;2022-08-19T09:23:52;14.13;;;7.50;;
71353;SDS011;59393;51.652;4.864;2022-08-19T09:26:19;17.13;;;7.57;;
71353;SDS011;59393;51.652;4.864;2022-08-19T09:28:46;15.77;;;7.35;;
71353;SDS011;59393;51.652;4.864;2022-08-19T09:31:13;15.05;;;8.23;;
71353;SDS011;59393;51.652;4.864;2022-08-19T09:33:40;14.67;;;7.73;;
71353;SDS011;59393;51.652;4.864;2022-08-19T09:36:09;17.77;;;7.53;;
71353;SDS011;59393;51.652;4.864;2022-08-19T09:38:36;22.05;;;8.73;;
71353;SDS011;59393;51.652;4.864;2022-08-19T09:41:06;14.60;;;8.00;;
71353;SDS011;59393;51.652;4.864;2022-08-19T09:43:33;16.25;;;7.63;;
71353;SDS011;59393;51.652;4.864;2022-08-19T09:46:02;15.13;;;7.00;;
71353;SDS011;59393;51.652;4.864;2022-08-19T09:48:34;15.75;;;8.07;;
71353;SDS011;59393;51.652;4.864;2022-08-19T09:51:11;13.23;;;7.45;;
71353;SDS011;59393;51.652;4.864;2022-08-19T09:53:40;14.88;;;7.85;;
71353;SDS011;59393;51.652;4.864;2022-08-19T09:56:07;13.93;;;7.20;;
71353;SDS011;59393;51.652;4.864;2022-08-19T09:58:33;14.97;;;8.27;;
71353;SDS011;59393;51.652;4.864;2022-08-19T10:01:00;14.43;;;7.90;;
71353;SDS011;59393;51.652;4.864;2022-08-19T10:03:26;14.13;;;8.38;;
71353;SDS011;59393;51.652;4.864;2022-08-19T10:05:53;14.95;;;7.45;;
71353;SDS011;59393;51.652;4.864;2022-08-19T10:08:21;16.17;;;7.55;;
71353;SDS011;59393;51.652;4.864;2022-08-19T10:10:47;14.97;;;7.67;;
71353;SDS011;59393;51.652;4.864;2022-08-19T10:13:14;15.40;;;7.80;;
71353;SDS011;59393;51.652;4.864;2022-08-19T10:15:41;13.20;;;7.95;;
71353;SDS011;59393;51.652;4.864;2022-08-19T10:18:07;17.70;;;7.93;;
71353;SDS011;59393;51.652;4.864;2022-08-19T10:20:33;16.88;;;8.38;;
71353;SDS011;59393;51.652;4.864;2022-08-19T10:23:01;16.17;;;7.93;;
71353;SDS011;59393;51.652;4.864;2022-08-19T10:25:29;13.80;;;7.95;;
71353;SDS011;59393;51.652;4.864;2022-08-19T10:27:57;13.32;;;7.55;;
71353;SDS011;59393;51.652;4.864;2022-08-19T10:30:23;13.55;;;8.18;;
71353;SDS011;59393;51.652;4.864;2022-08-19T10:32:49;16.80;;;9.05;;
71353;SDS011;59393;51.652;4.864;2022-08-19T10:35:15;17.73;;;9.43;;
71353;SDS011;59393;51.652;4.864;2022-08-19T10:37:42;14.30;;;8.98;;
71353;SDS011;59393;51.652;4.864;2022-08-19T10:40:08;16.17;;;9.38;;
71353;SDS011;59393;51.652;4.864;2022-08-19T10:42:36;16.20;;;9.35;;
71353;SDS011;59393;51.652;4.864;2022-08-19T10:45:03;17.45;;;9.02;;
71353;SDS011;59393;51.652;4.864;2022-08-19T10:47:30;20.80;;;8.53;;
71353;SDS011;59393;51.652;4.864;2022-08-19T10:49:56;21.95;;;8.57;;
71353;SDS011;59393;51.652;4.864;2022-08-19T10:52:45;16.50;;;8.25;;
71353;SDS011;59393;51.652;4.864;2022-08-19T10:55:12;16.63;;;7.65;;
71353;SDS011;59393;51.652;4.864;2022-08-19T10:57:56;13.57;;;7.68;;
71353;SDS011;59393;51.652;4.864;2022-08-19T11:00:23;13.73;;;8.03;;
71353;SDS011;59393;51.652;4.864;2022-08-19T11:02:50;15.93;;;7.53;;
71353;SDS011;59393;51.652;4.864;2022-08-19T11:05:16;18.40;;;8.63;;
71353;SDS011;59393;51.652;4.864;2022-08-19T11:07:43;16.30;;;8.23;;
71353;SDS011;59393;51.652;4.864;2022-08-19T11:10:10;15.50;;;8.40;;
71353;SDS011;59393;51.652;4.864;2022-08-19T11:12:37;16.63;;;8.53;;
71353;SDS011;59393;51.652;4.864;2022-08-19T11:15:07;16.55;;;8.60;;
71353;SDS011;59393;51.652;4.864;2022-08-19T11:17:35;12.23;;;7.63;;
71353;SDS011;59393;51.652;4.864;2022-08-19T11:20:05;14.38;;;8.07;;
71353;SDS011;59393;51.652;4.864;2022-08-19T11:22:31;14.30;;;8.48;;
71353;SDS011;59393;51.652;4.864;2022-08-19T11:24:57;16.80;;;8.57;;
71353;SDS011;59393;51.652;4.864;2022-08-19T11:27:23;17.27;;;9.65;;
71353;SDS011;59393;51.652;4.864;2022-08-19T11:29:49;15.57;;;10.27;;
71353;SDS011;59393;51.652;4.864;2022-08-19T11:32:17;17.00;;;9.65;;
71353;SDS011;59393;51.652;4.864;2022-08-19T11:34:43;17.73;;;9.70;;
71353;SDS011;59393;51.652;4.864;2022-08-19T11:37:09;15.93;;;8.23;;
71353;SDS011;59393;51.652;4.864;2022-08-19T11:39:35;18.10;;;9.60;;
71353;SDS011;59393;51.652;4.864;2022-08-19T11:42:02;16.92;;;8.73;;
71353;SDS011;59393;51.652;4.864;2022-08-19T11:44:49;25.70;;;9.48;;
71353;SDS011;59393;51.652;4.864;2022-08-19T11:47:18;21.35;;;10.13;;
71353;SDS011;59393;51.652;4.864;2022-08-19T11:49:45;19.87;;;11.17;;
71353;SDS011;59393;51.652;4.864;2022-08-19T11:52:12;23.25;;;11.00;;
71353;SDS011;59393;51.652;4.864;2022-08-19T11:54:39;23.52;;;12.18;;
71353;SDS011;59393;51.652;4.864;2022-08-19T11:57:05;22.70;;;13.55;;
71353;SDS011;59393;51.652;4.864;2022-08-19T11:59:31;31.00;;;15.32;;
71353;SDS011;59393;51.652;4.864;2022-08-19T12:01:57;25.37;;;14.83;;
71353;SDS011;59393;51.652;4.864;2022-08-19T12:04:24;26.27;;;15.13;;
71353;SDS011;59393;51.652;4.864;2022-08-19T12:06:50;30.83;;;16.67;;
71353;SDS011;59393;51.652;4.864;2022-08-19T12:09:16;30.35;;;16.00;;
71353;SDS011;59393;51.652;4.864;2022-08-19T12:11:42;27.83;;;16.35;;
71353;SDS011;59393;51.652;4.864;2022-08-19T12:14:09;25.07;;;15.23;;
71353;SDS011;59393;51.652;4.864;2022-08-19T12:16:36;22.10;;;11.63;;
71353;SDS011;59393;51.652;4.864;2022-08-19T12:19:03;19.00;;;10.75;;
71353;SDS011;59393;51.652;4.864;2022-08-19T12:21:30;20.85;;;11.40;;
71353;SDS011;59393;51.652;4.864;2022-08-19T12:23:57;17.85;;;11.02;;
71353;SDS011;59393;51.652;4.864;2022-08-19T12:26:24;21.07;;;11.63;;
71353;SDS011;59393;51.652;4.864;2022-08-19T12:28:50;19.50;;;12.65;;
71353;SDS011;59393;51.652;4.864;2022-08-19T12:31:17;20.52;;;11.63;;
71353;SDS011;59393;51.652;4.864;2022-08-19T12:33:44;22.30;;;12.63;;
71353;SDS011;59393;51.652;4.864;2022-08-19T12:36:10;19.48;;;12.25;;
71353;SDS011;59393;51.652;4.864;2022-08-19T12:38:37;23.00;;;12.20;;
71353;SDS011;59393;51.652;4.864;2022-08-19T12:41:04;17.15;;;9.70;;
71353;SDS011;59393;51.652;4.864;2022-08-19T12:43:31;16.90;;;9.30;;
71353;SDS011;59393;51.652;4.864;2022-08-19T12:45:57;20.88;;;10.48;;
71353;SDS011;59393;51.652;4.864;2022-08-19T12:48:23;15.73;;;8.65;;
71353;SDS011;59393;51.652;4.864;2022-08-19T12:50:49;13.80;;;8.23;;
71353;SDS011;59393;51.652;4.864;2022-08-19T12:53:15;15.13;;;8.80;;
71353;SDS011;59393;51.652;4.864;2022-08-19T12:55:42;18.60;;;10.05;;
71353;SDS011;59393;51.652;4.864;2022-08-19T12:58:08;16.45;;;9.32;;
71353;SDS011;59393;51.652;4.864;2022-08-19T13:00:35;16.60;;;9.18;;
71353;SDS011;59393;51.652;4.864;2022-08-19T13:03:01;17.77;;;9.00;;
71353;SDS011;59393;51.652;4.864;2022-08-19T13:05:29;15.20;;;9.18;;
71353;SDS011;59393;51.652;4.864;2022-08-19T13:07:58;17.10;;;9.02;;
71353;SDS011;59393;51.652;4.864;2022-08-19T13:10:31;16.40;;;9.43;;
71353;SDS011;59393;51.652;4.864;2022-08-19T13:13:02;17.98;;;10.00;;
71353;SDS011;59393;51.652;4.864;2022-08-19T13:15:28;16.30;;;9.37;;
71353;SDS011;59393;51.652;4.864;2022-08-19T13:17:56;16.58;;;9.70;;
71353;SDS011;59393;51.652;4.864;2022-08-19T13:20:23;15.77;;;8.77;;
71353;SDS011;59393;51.652;4.864;2022-08-19T13:22:49;17.25;;;9.00;;
71353;SDS011;59393;51.652;4.864;2022-08-19T13:25:16;14.43;;;7.95;;
71353;SDS011;59393;51.652;4.864;2022-08-19T13:27:44;14.87;;;7.87;;
71353;SDS011;59393;51.652;4.864;2022-08-19T13:30:11;13.98;;;7.40;;
71353;SDS011;59393;51.652;4.864;2022-08-19T13:32:56;16.60;;;7.68;;
71353;SDS011;59393;51.652;4.864;2022-08-19T13:38:07;16.20;;;8.27;;
71353;SDS011;59393;51.652;4.864;2022-08-19T13:40:34;15.70;;;9.47;;
71353;SDS011;59393;51.652;4.864;2022-08-19T13:43:00;19.40;;;9.65;;
71353;SDS011;59393;51.652;4.864;2022-08-19T13:45:27;17.13;;;9.68;;
71353;SDS011;59393;51.652;4.864;2022-08-19T13:47:54;17.80;;;9.07;;
71353;SDS011;59393;51.652;4.864;2022-08-19T13:50:24;19.27;;;9.65;;
71353;SDS011;59393;51.652;4.864;2022-08-19T13:52:50;16.90;;;10.13;;
71353;SDS011;59393;51.652;4.864;2022-08-19T13:55:17;16.88;;;9.07;;
71353;SDS011;59393;51.652;4.864;2022-08-19T13:57:43;15.55;;;9.20;;
71353;SDS011;59393;51.652;4.864;2022-08-19T14:00:12;15.18;;;9.23;;
71353;SDS011;59393;51.652;4.864;2022-08-19T14:02:38;17.75;;;8.88;;
71353;SDS011;59393;51.652;4.864;2022-08-19T14:05:05;17.63;;;9.50;;
71353;SDS011;59393;51.652;4.864;2022-08-19T14:07:32;15.93;;;10.15;;
71353;SDS011;59393;51.652;4.864;2022-08-19T14:09:58;15.40;;;8.65;;
71353;SDS011;59393;51.652;4.864;2022-08-19T14:12:24;17.25;;;10.02;;
71353;SDS011;59393;51.652;4.864;2022-08-19T14:14:50;18.07;;;10.23;;
71353;SDS011;59393;51.652;4.864;2022-08-19T14:17:16;18.80;;;10.35;;
71353;SDS011;59393;51.652;4.864;2022-08-19T14:19:42;29.23;;;11.80;;
71353;SDS011;59393;51.652;4.864;2022-08-19T14:22:09;21.00;;;11.23;;
71353;SDS011;59393;51.652;4.864;2022-08-19T14:24:36;24.80;;;11.77;;
71353;SDS011;59393;51.652;4.864;2022-08-19T14:27:04;25.10;;;11.27;;
71353;SDS011;59393;51.652;4.864;2022-08-19T14:29:30;20.55;;;9.63;;
71353;SDS011;59393;51.652;4.864;2022-08-19T14:31:56;22.17;;;9.90;;
71353;SDS011;59393;51.652;4.864;2022-08-19T14:34:24;13.75;;;7.43;;
71353;SDS011;59393;51.652;4.864;2022-08-19T14:36:50;15.60;;;8.82;;